Due to severe server failure at the provider, not all demo sites are operational. Will take some days to rebuilt everything.

Demonstration site - Click on the  for more information

This is an optional block. Switch it on/off in your settings-file: $SITE['bannerTop'] = false; or $SITE['bannerBottom'] = false;

You can display ads, any other important text or photo’s using text / html or PHP code.

You can place one or more at the top and or bottom and it can all be different for content / size .



Visit our other weather sites:

Template documentation
and downloads

And another site



Nearby METAR Reports

   
EBAW - Antwerp
Updated: 21-10-2019 19:50
Light Drizzle, Rain, Mist, Mostly Cloudy  
Light Drizzle, Rain, Mist, Mostly Cloudy  
   Wind: SSW 7.4 km/h
Wind: SSW 7.4 km/h
Temperature: 12°C
Dew Point: 11°C
Humidity: 94%
Barometer: 1019 hPa
Clouds: Mostly Cloudy
Visibility: 5 km
Cloud details: Partly Cloudy 500 ft,
Mostly Cloudy 700 ft
EBAW 211750Z 20004KT 5000 -DZRA BR SCT005 BKN007 12/11 Q1019 TEMPO 3000 RADZ SCT003 BKN005
EBLG - Liège
Updated: 21-10-2019 19:50
Mostly Cloudy  
Mostly Cloudy  
   Wind: South 20.4 km/h
Wind: South 20.4 km/h
Temperature: 12°C
Dew Point: 7°C
Humidity: 72%
Barometer: 1020 hPa
Clouds: Mostly Cloudy
Visibility: More than 10 km
Cloud details: Mostly Cloudy 3100 ft
EBLG 211750Z 19011KT 9999 BKN031 12/07 Q1020 NOSIG
EBCV - Mons/Bergen
Updated: 21-10-2019 17:55
NOT Current
  
  
   Wind: South 14.8 km/h
Wind: South 14.8 km/h
Temperature: 12°C
Dew Point: 11°C
Humidity: 94%
Barometer: 1017 hPa
EBCV 211555Z AUTO 18008KT //// /// 12/11 Q1017
EHBK - Maastricht
Updated: 21-10-2019 19:55
Overcast  
Overcast  
   Wind: South 18.5 km/h
Wind: South 18.5 km/h
Temperature: 13°C
Dew Point: 8°C
Humidity: 72%
Barometer: 1019 hPa
Clouds: Overcast
Visibility: More than 10 km
Cloud details: Overcast 3200 ft
EHBK 211755Z AUTO 18010KT 150V210 9999 OVC032 13/08 Q1019 NOSIG
ELLX - Luxemburg
Updated: 21-10-2019 19:50
Few Clouds  
Few Clouds  
   Wind: SSW 7.4 km/h
Wind: SSW 7.4 km/h
Temperature: 10°C
Wind Chill: 9°C
Dew Point: 8°C
Humidity: 88%
Barometer: 1021 hPa
Clouds: Few Clouds
Visibility: More than 10 km
Cloud details: Few Clouds 2800 ft
ELLX 211750Z 20004KT 170V230 9999 FEW028 10/08 Q1021 NOSIG
EBOS - Oostende
Updated: 21-10-2019 19:50
Mostly Cloudy  
Mostly Cloudy  
   Wind: South 5.6 km/h
Wind: South 5.6 km/h
Temperature: 12°C
Dew Point: 11°C
Humidity: 94%
Barometer: 1018 hPa
Clouds: Mostly Cloudy
Visibility: More than 10 km
Cloud details: Partly Cloudy 1100 ft,
Mostly Cloudy 1600 ft
EBOS 211750Z 17003KT 9999 SCT011 BKN016 12/11 Q1018 TEMPO 4500 -DZ BKN009

Script developed by  Saratoga-weather.org Adapted for the template by  Weerstation Leuven

This is an optional block. Switch it on/off in your settings-file: $SITE['bannerTop'] = false; or $SITE['bannerBottom'] = false;

You can display ads, any other important text or photo’s using text / html or PHP code.

You can place one or more at the top and or bottom and it can all be different for content / size .